sensor_id;sensor_type;location;lat;lon;timestamp;P1;durP1;ratioP1;P2;durP2;ratioP2
65799;SDS011;52544;48.116;11.660;2022-09-16T00:01:02;8.27;;;3.95;;
65799;SDS011;52544;48.116;11.660;2022-09-16T00:03:33;7.20;;;3.88;;
65799;SDS011;52544;48.116;11.660;2022-09-16T00:05:59;5.63;;;4.15;;
65799;SDS011;52544;48.116;11.660;2022-09-16T00:08:24;5.15;;;3.53;;
65799;SDS011;52544;48.116;11.660;2022-09-16T00:10:50;4.05;;;3.05;;
65799;SDS011;52544;48.116;11.660;2022-09-16T00:13:16;7.82;;;3.95;;
65799;SDS011;52544;48.116;11.660;2022-09-16T00:15:43;5.80;;;3.95;;
65799;SDS011;52544;48.116;11.660;2022-09-16T00:18:10;7.57;;;3.65;;
65799;SDS011;52544;48.116;11.660;2022-09-16T00:20:36;5.95;;;3.63;;
65799;SDS011;52544;48.116;11.660;2022-09-16T00:23:06;5.40;;;3.50;;
65799;SDS011;52544;48.116;11.660;2022-09-16T00:25:31;5.25;;;3.58;;
65799;SDS011;52544;48.116;11.660;2022-09-16T00:27:57;5.47;;;3.90;;
65799;SDS011;52544;48.116;11.660;2022-09-16T00:30:22;6.15;;;3.50;;
65799;SDS011;52544;48.116;11.660;2022-09-16T00:32:47;8.13;;;3.97;;
65799;SDS011;52544;48.116;11.660;2022-09-16T00:35:13;6.72;;;4.18;;
65799;SDS011;52544;48.116;11.660;2022-09-16T00:37:38;5.53;;;3.63;;
65799;SDS011;52544;48.116;11.660;2022-09-16T00:40:04;5.05;;;3.75;;
65799;SDS011;52544;48.116;11.660;2022-09-16T00:42:30;11.10;;;3.95;;
65799;SDS011;52544;48.116;11.660;2022-09-16T00:45:03;11.27;;;4.10;;
65799;SDS011;52544;48.116;11.660;2022-09-16T00:47:45;7.78;;;3.70;;
65799;SDS011;52544;48.116;11.660;2022-09-16T00:53:05;12.65;;;4.40;;
65799;SDS011;52544;48.116;11.660;2022-09-16T00:55:37;5.13;;;3.58;;
65799;SDS011;52544;48.116;11.660;2022-09-16T00:58:04;6.32;;;3.40;;
65799;SDS011;52544;48.116;11.660;2022-09-16T01:00:39;8.70;;;3.67;;
65799;SDS011;52544;48.116;11.660;2022-09-16T01:03:05;5.55;;;3.50;;
65799;SDS011;52544;48.116;11.660;2022-09-16T01:05:31;5.18;;;3.60;;
65799;SDS011;52544;48.116;11.660;2022-09-16T01:07:56;7.45;;;4.20;;
65799;SDS011;52544;48.116;11.660;2022-09-16T01:10:23;6.55;;;4.03;;
65799;SDS011;52544;48.116;11.660;2022-09-16T01:12:53;6.90;;;3.80;;
65799;SDS011;52544;48.116;11.660;2022-09-16T01:15:25;5.10;;;3.65;;
65799;SDS011;52544;48.116;11.660;2022-09-16T01:18:06;7.85;;;4.10;;
65799;SDS011;52544;48.116;11.660;2022-09-16T01:23:57;7.35;;;3.53;;
65799;SDS011;52544;48.116;11.660;2022-09-16T01:26:39;6.60;;;3.67;;
65799;SDS011;52544;48.116;11.660;2022-09-16T01:45:28;5.53;;;3.85;;
65799;SDS011;52544;48.116;11.660;2022-09-16T01:51:18;9.65;;;3.85;;
65799;SDS011;52544;48.116;11.660;2022-09-16T01:54:15;7.05;;;3.80;;
65799;SDS011;52544;48.116;11.660;2022-09-16T01:56:56;6.80;;;3.60;;
65799;SDS011;52544;48.116;11.660;2022-09-16T01:59:40;6.57;;;4.10;;
65799;SDS011;52544;48.116;11.660;2022-09-16T02:02:20;7.07;;;4.07;;
65799;SDS011;52544;48.116;11.660;2022-09-16T02:04:53;7.10;;;4.18;;
65799;SDS011;52544;48.116;11.660;2022-09-16T02:07:25;8.90;;;3.53;;
65799;SDS011;52544;48.116;11.660;2022-09-16T02:09:56;5.75;;;3.75;;
65799;SDS011;52544;48.116;11.660;2022-09-16T02:12:31;6.38;;;3.85;;
65799;SDS011;52544;48.116;11.660;2022-09-16T02:15:02;7.22;;;4.55;;
65799;SDS011;52544;48.116;11.660;2022-09-16T02:17:32;5.85;;;3.78;;
65799;SDS011;52544;48.116;11.660;2022-09-16T02:20:04;10.20;;;4.47;;
65799;SDS011;52544;48.116;11.660;2022-09-16T02:22:39;7.18;;;4.20;;
65799;SDS011;52544;48.116;11.660;2022-09-16T02:25:07;5.82;;;4.05;;
65799;SDS011;52544;48.116;11.660;2022-09-16T02:27:37;7.00;;;4.45;;
65799;SDS011;52544;48.116;11.660;2022-09-16T02:30:06;8.10;;;4.70;;
65799;SDS011;52544;48.116;11.660;2022-09-16T02:32:35;8.13;;;3.97;;
65799;SDS011;52544;48.116;11.660;2022-09-16T02:35:06;6.85;;;4.05;;
65799;SDS011;52544;48.116;11.660;2022-09-16T02:37:38;7.03;;;4.13;;
65799;SDS011;52544;48.116;11.660;2022-09-16T02:40:19;7.57;;;4.57;;
65799;SDS011;52544;48.116;11.660;2022-09-16T02:42:49;7.50;;;4.20;;
65799;SDS011;52544;48.116;11.660;2022-09-16T02:45:15;6.30;;;4.30;;
65799;SDS011;52544;48.116;11.660;2022-09-16T02:47:58;5.82;;;4.00;;
65799;SDS011;52544;48.116;11.660;2022-09-16T02:50:39;6.60;;;4.07;;
65799;SDS011;52544;48.116;11.660;2022-09-16T02:58:17;5.60;;;3.80;;
65799;SDS011;52544;48.116;11.660;2022-09-16T03:00:44;8.65;;;3.90;;
65799;SDS011;52544;48.116;11.660;2022-09-16T03:03:12;6.57;;;4.18;;
65799;SDS011;52544;48.116;11.660;2022-09-16T03:08:25;6.63;;;4.40;;
65799;SDS011;52544;48.116;11.660;2022-09-16T03:10:51;6.10;;;3.95;;
65799;SDS011;52544;48.116;11.660;2022-09-16T03:13:35;8.20;;;4.35;;
65799;SDS011;52544;48.116;11.660;2022-09-16T03:16:16;6.20;;;4.10;;
65799;SDS011;52544;48.116;11.660;2022-09-16T03:18:58;6.90;;;4.40;;
65799;SDS011;52544;48.116;11.660;2022-09-16T03:24:26;7.60;;;4.60;;
65799;SDS011;52544;48.116;11.660;2022-09-16T03:27:15;7.93;;;4.32;;
65799;SDS011;52544;48.116;11.660;2022-09-16T03:29:48;6.47;;;4.25;;
65799;SDS011;52544;48.116;11.660;2022-09-16T03:32:23;6.05;;;4.55;;
65799;SDS011;52544;48.116;11.660;2022-09-16T03:34:58;8.15;;;4.40;;
65799;SDS011;52544;48.116;11.660;2022-09-16T03:37:27;6.63;;;4.35;;
65799;SDS011;52544;48.116;11.660;2022-09-16T03:39:58;6.72;;;4.05;;
65799;SDS011;52544;48.116;11.660;2022-09-16T03:42:27;6.45;;;4.13;;
65799;SDS011;52544;48.116;11.660;2022-09-16T03:44:52;9.15;;;4.78;;
65799;SDS011;52544;48.116;11.660;2022-09-16T03:47:18;11.07;;;4.95;;
65799;SDS011;52544;48.116;11.660;2022-09-16T03:49:43;12.48;;;5.40;;
65799;SDS011;52544;48.116;11.660;2022-09-16T03:52:09;7.03;;;4.40;;
65799;SDS011;52544;48.116;11.660;2022-09-16T03:54:35;8.88;;;4.93;;
65799;SDS011;52544;48.116;11.660;2022-09-16T03:57:01;10.65;;;4.85;;
65799;SDS011;52544;48.116;11.660;2022-09-16T03:59:28;9.27;;;4.68;;
65799;SDS011;52544;48.116;11.660;2022-09-16T04:01:54;8.88;;;5.25;;
65799;SDS011;52544;48.116;11.660;2022-09-16T04:04:19;15.15;;;4.93;;
65799;SDS011;52544;48.116;11.660;2022-09-16T04:06:45;13.88;;;4.97;;
65799;SDS011;52544;48.116;11.660;2022-09-16T04:09:10;7.47;;;4.88;;
65799;SDS011;52544;48.116;11.660;2022-09-16T04:11:37;7.63;;;4.72;;
65799;SDS011;52544;48.116;11.660;2022-09-16T04:14:05;7.97;;;5.20;;
65799;SDS011;52544;48.116;11.660;2022-09-16T04:16:31;8.40;;;4.97;;
65799;SDS011;52544;48.116;11.660;2022-09-16T04:18:57;8.23;;;4.53;;
65799;SDS011;52544;48.116;11.660;2022-09-16T04:21:23;10.77;;;5.75;;
65799;SDS011;52544;48.116;11.660;2022-09-16T04:23:49;8.65;;;5.57;;
65799;SDS011;52544;48.116;11.660;2022-09-16T04:26:14;10.25;;;5.43;;
65799;SDS011;52544;48.116;11.660;2022-09-16T04:28:41;13.48;;;6.03;;
65799;SDS011;52544;48.116;11.660;2022-09-16T04:31:09;13.07;;;5.82;;
65799;SDS011;52544;48.116;11.660;2022-09-16T04:33:36;11.88;;;6.55;;
65799;SDS011;52544;48.116;11.660;2022-09-16T04:36:13;16.00;;;7.35;;
65799;SDS011;52544;48.116;11.660;2022-09-16T04:38:41;13.00;;;6.90;;
65799;SDS011;52544;48.116;11.660;2022-09-16T04:41:09;10.00;;;6.50;;
65799;SDS011;52544;48.116;11.660;2022-09-16T04:43:38;16.33;;;7.30;;
65799;SDS011;52544;48.116;11.660;2022-09-16T04:46:04;10.75;;;6.65;;
65799;SDS011;52544;48.116;11.660;2022-09-16T04:48:31;11.48;;;5.60;;
65799;SDS011;52544;48.116;11.660;2022-09-16T04:51:05;12.52;;;6.18;;
65799;SDS011;52544;48.116;11.660;2022-09-16T04:53:33;14.88;;;7.85;;
65799;SDS011;52544;48.116;11.660;2022-09-16T04:58:39;12.02;;;6.68;;
65799;SDS011;52544;48.116;11.660;2022-09-16T05:01:27;14.57;;;6.53;;
65799;SDS011;52544;48.116;11.660;2022-09-16T05:03:56;12.55;;;6.20;;
65799;SDS011;52544;48.116;11.660;2022-09-16T05:06:24;14.05;;;6.65;;
65799;SDS011;52544;48.116;11.660;2022-09-16T05:08:54;10.93;;;6.22;;
65799;SDS011;52544;48.116;11.660;2022-09-16T05:11:24;11.63;;;6.70;;
65799;SDS011;52544;48.116;11.660;2022-09-16T05:13:52;13.40;;;6.47;;
65799;SDS011;52544;48.116;11.660;2022-09-16T05:16:19;12.27;;;5.93;;
65799;SDS011;52544;48.116;11.660;2022-09-16T05:18:47;9.63;;;5.90;;
65799;SDS011;52544;48.116;11.660;2022-09-16T05:21:14;13.32;;;6.88;;
65799;SDS011;52544;48.116;11.660;2022-09-16T05:23:41;11.00;;;6.75;;
65799;SDS011;52544;48.116;11.660;2022-09-16T05:26:09;11.15;;;6.60;;
65799;SDS011;52544;48.116;11.660;2022-09-16T05:28:36;10.85;;;6.57;;
65799;SDS011;52544;48.116;11.660;2022-09-16T05:31:12;11.85;;;6.78;;
65799;SDS011;52544;48.116;11.660;2022-09-16T05:33:39;10.93;;;6.90;;
65799;SDS011;52544;48.116;11.660;2022-09-16T05:36:07;10.52;;;6.57;;
65799;SDS011;52544;48.116;11.660;2022-09-16T05:38:34;15.77;;;7.45;;
65799;SDS011;52544;48.116;11.660;2022-09-16T05:41:00;13.07;;;7.88;;
65799;SDS011;52544;48.116;11.660;2022-09-16T05:43:26;14.45;;;6.78;;
65799;SDS011;52544;48.116;11.660;2022-09-16T05:45:52;12.05;;;6.00;;
65799;SDS011;52544;48.116;11.660;2022-09-16T05:48:18;11.38;;;6.75;;
65799;SDS011;52544;48.116;11.660;2022-09-16T05:50:51;45.80;;;24.83;;
65799;SDS011;52544;48.116;11.660;2022-09-16T05:53:21;11.13;;;6.90;;
65799;SDS011;52544;48.116;11.660;2022-09-16T05:58:30;14.43;;;6.40;;
65799;SDS011;52544;48.116;11.660;2022-09-16T06:01:07;9.77;;;6.40;;
65799;SDS011;52544;48.116;11.660;2022-09-16T06:03:35;13.02;;;6.28;;
65799;SDS011;52544;48.116;11.660;2022-09-16T06:06:23;9.68;;;6.40;;
65799;SDS011;52544;48.116;11.660;2022-09-16T06:08:54;12.40;;;6.35;;
65799;SDS011;52544;48.116;11.660;2022-09-16T06:11:21;11.30;;;6.35;;
65799;SDS011;52544;48.116;11.660;2022-09-16T06:13:51;11.02;;;6.63;;
65799;SDS011;52544;48.116;11.660;2022-09-16T06:16:21;12.40;;;6.20;;
65799;SDS011;52544;48.116;11.660;2022-09-16T06:18:50;13.25;;;5.78;;
65799;SDS011;52544;48.116;11.660;2022-09-16T06:21:16;11.00;;;6.25;;
65799;SDS011;52544;48.116;11.660;2022-09-16T06:23:41;12.98;;;5.95;;
65799;SDS011;52544;48.116;11.660;2022-09-16T06:26:08;11.95;;;5.72;;
65799;SDS011;52544;48.116;11.660;2022-09-16T06:28:37;9.95;;;5.68;;
65799;SDS011;52544;48.116;11.660;2022-09-16T06:31:04;15.38;;;6.18;;
65799;SDS011;52544;48.116;11.660;2022-09-16T06:33:37;10.13;;;6.18;;
65799;SDS011;52544;48.116;11.660;2022-09-16T06:36:09;11.55;;;5.97;;
65799;SDS011;52544;48.116;11.660;2022-09-16T06:38:36;12.90;;;6.72;;
65799;SDS011;52544;48.116;11.660;2022-09-16T06:41:03;19.45;;;6.57;;
65799;SDS011;52544;48.116;11.660;2022-09-16T06:43:31;14.77;;;6.53;;
65799;SDS011;52544;48.116;11.660;2022-09-16T06:46:00;15.50;;;6.38;;
65799;SDS011;52544;48.116;11.660;2022-09-16T06:48:31;14.52;;;6.55;;
65799;SDS011;52544;48.116;11.660;2022-09-16T06:51:08;12.48;;;5.90;;
65799;SDS011;52544;48.116;11.660;2022-09-16T06:53:35;9.45;;;6.00;;
65799;SDS011;52544;48.116;11.660;2022-09-16T06:56:02;10.48;;;6.40;;
65799;SDS011;52544;48.116;11.660;2022-09-16T06:58:30;13.45;;;6.68;;
65799;SDS011;52544;48.116;11.660;2022-09-16T07:00:57;10.35;;;6.20;;
65799;SDS011;52544;48.116;11.660;2022-09-16T07:03:23;14.75;;;7.00;;
65799;SDS011;52544;48.116;11.660;2022-09-16T07:05:58;11.57;;;6.80;;
65799;SDS011;52544;48.116;11.660;2022-09-16T07:08:27;10.43;;;6.28;;
65799;SDS011;52544;48.116;11.660;2022-09-16T07:10:57;12.40;;;6.28;;
65799;SDS011;52544;48.116;11.660;2022-09-16T07:13:22;13.20;;;7.00;;
65799;SDS011;52544;48.116;11.660;2022-09-16T07:15:48;10.40;;;6.32;;
65799;SDS011;52544;48.116;11.660;2022-09-16T07:18:13;18.48;;;10.20;;
65799;SDS011;52544;48.116;11.660;2022-09-16T07:20:39;16.58;;;9.10;;
65799;SDS011;52544;48.116;11.660;2022-09-16T07:23:04;16.63;;;7.95;;
65799;SDS011;52544;48.116;11.660;2022-09-16T07:25:30;11.45;;;7.20;;
65799;SDS011;52544;48.116;11.660;2022-09-16T07:27:56;12.05;;;6.82;;
65799;SDS011;52544;48.116;11.660;2022-09-16T07:30:22;13.60;;;7.03;;
65799;SDS011;52544;48.116;11.660;2022-09-16T07:32:48;10.77;;;6.70;;
65799;SDS011;52544;48.116;11.660;2022-09-16T07:35:13;11.00;;;6.90;;
65799;SDS011;52544;48.116;11.660;2022-09-16T07:37:39;13.45;;;6.60;;
65799;SDS011;52544;48.116;11.660;2022-09-16T07:40:04;12.55;;;7.15;;
65799;SDS011;52544;48.116;11.660;2022-09-16T07:42:30;12.13;;;7.20;;
65799;SDS011;52544;48.116;11.660;2022-09-16T07:44:56;16.10;;;8.27;;
65799;SDS011;52544;48.116;11.660;2022-09-16T07:47:21;13.57;;;8.15;;
65799;SDS011;52544;48.116;11.660;2022-09-16T07:49:47;14.43;;;6.53;;
65799;SDS011;52544;48.116;11.660;2022-09-16T07:52:12;15.60;;;7.28;;
65799;SDS011;52544;48.116;11.660;2022-09-16T07:54:38;11.70;;;7.00;;
65799;SDS011;52544;48.116;11.660;2022-09-16T07:57:04;11.70;;;7.25;;
65799;SDS011;52544;48.116;11.660;2022-09-16T07:59:29;14.88;;;8.35;;
65799;SDS011;52544;48.116;11.660;2022-09-16T08:01:55;15.73;;;7.63;;
65799;SDS011;52544;48.116;11.660;2022-09-16T08:04:20;14.38;;;8.10;;
65799;SDS011;52544;48.116;11.660;2022-09-16T08:06:46;14.73;;;8.15;;
65799;SDS011;52544;48.116;11.660;2022-09-16T08:09:11;14.52;;;8.15;;
65799;SDS011;52544;48.116;11.660;2022-09-16T08:11:37;14.98;;;7.75;;
65799;SDS011;52544;48.116;11.660;2022-09-16T08:14:02;14.20;;;7.78;;
65799;SDS011;52544;48.116;11.660;2022-09-16T08:16:28;10.45;;;6.93;;
65799;SDS011;52544;48.116;11.660;2022-09-16T08:18:54;11.90;;;7.47;;
65799;SDS011;52544;48.116;11.660;2022-09-16T08:21:25;15.77;;;8.82;;
65799;SDS011;52544;48.116;11.660;2022-09-16T08:23:56;12.85;;;7.70;;
65799;SDS011;52544;48.116;11.660;2022-09-16T08:26:22;14.60;;;7.60;;
65799;SDS011;52544;48.116;11.660;2022-09-16T08:28:48;13.85;;;7.55;;
65799;SDS011;52544;48.116;11.660;2022-09-16T08:31:15;14.20;;;8.00;;
65799;SDS011;52544;48.116;11.660;2022-09-16T08:33:42;14.10;;;8.48;;
65799;SDS011;52544;48.116;11.660;2022-09-16T08:38:39;18.13;;;8.18;;
65799;SDS011;52544;48.116;11.660;2022-09-16T08:43:46;19.20;;;8.15;;
65799;SDS011;52544;48.116;11.660;2022-09-16T08:46:45;16.73;;;9.48;;
65799;SDS011;52544;48.116;11.660;2022-09-16T08:49:40;15.70;;;7.82;;
65799;SDS011;52544;48.116;11.660;2022-09-16T08:52:17;17.48;;;7.40;;
65799;SDS011;52544;48.116;11.660;2022-09-16T08:54:44;17.85;;;7.43;;
65799;SDS011;52544;48.116;11.660;2022-09-16T08:57:15;14.70;;;8.10;;
65799;SDS011;52544;48.116;11.660;2022-09-16T08:59:48;12.90;;;7.30;;
65799;SDS011;52544;48.116;11.660;2022-09-16T09:05:33;13.20;;;7.75;;
65799;SDS011;52544;48.116;11.660;2022-09-16T09:16:36;15.25;;;7.47;;
65799;SDS011;52544;48.116;11.660;2022-09-16T09:19:16;12.82;;;6.43;;
65799;SDS011;52544;48.116;11.660;2022-09-16T09:34:44;15.43;;;7.57;;
65799;SDS011;52544;48.116;11.660;2022-09-16T09:43:11;14.68;;;7.80;;
65799;SDS011;52544;48.116;11.660;2022-09-16T09:48:41;19.17;;;7.70;;
65799;SDS011;52544;48.116;11.660;2022-09-16T09:51:14;17.33;;;8.10;;
65799;SDS011;52544;48.116;11.660;2022-09-16T09:53:52;13.80;;;7.55;;
65799;SDS011;52544;48.116;11.660;2022-09-16T09:56:23;19.75;;;10.45;;
65799;SDS011;52544;48.116;11.660;2022-09-16T10:01:18;12.45;;;7.72;;
65799;SDS011;52544;48.116;11.660;2022-09-16T10:03:43;16.30;;;8.40;;
65799;SDS011;52544;48.116;11.660;2022-09-16T10:06:09;15.30;;;8.23;;
65799;SDS011;52544;48.116;11.660;2022-09-16T10:08:45;17.60;;;8.90;;
65799;SDS011;52544;48.116;11.660;2022-09-16T10:11:16;16.23;;;8.63;;
65799;SDS011;52544;48.116;11.660;2022-09-16T10:13:50;12.05;;;7.88;;
65799;SDS011;52544;48.116;11.660;2022-09-16T10:16:21;16.92;;;8.57;;
65799;SDS011;52544;48.116;11.660;2022-09-16T10:21:49;17.52;;;8.85;;
65799;SDS011;52544;48.116;11.660;2022-09-16T10:26:59;16.85;;;9.50;;
65799;SDS011;52544;48.116;11.660;2022-09-16T10:29:26;16.80;;;8.60;;
65799;SDS011;52544;48.116;11.660;2022-09-16T10:31:52;14.32;;;9.00;;
65799;SDS011;52544;48.116;11.660;2022-09-16T10:34:31;18.77;;;8.88;;
65799;SDS011;52544;48.116;11.660;2022-09-16T10:37:04;20.65;;;9.98;;
65799;SDS011;52544;48.116;11.660;2022-09-16T10:39:38;15.52;;;9.38;;
65799;SDS011;52544;48.116;11.660;2022-09-16T10:42:17;19.95;;;9.68;;
65799;SDS011;52544;48.116;11.660;2022-09-16T10:44:47;13.60;;;8.38;;
65799;SDS011;52544;48.116;11.660;2022-09-16T10:47:22;15.57;;;9.15;;
65799;SDS011;52544;48.116;11.660;2022-09-16T10:49:51;19.17;;;9.73;;
65799;SDS011;52544;48.116;11.660;2022-09-16T10:52:22;16.65;;;9.93;;
65799;SDS011;52544;48.116;11.660;2022-09-16T10:54:49;26.15;;;14.60;;
65799;SDS011;52544;48.116;11.660;2022-09-16T10:57:25;15.27;;;10.07;;
65799;SDS011;52544;48.116;11.660;2022-09-16T11:00:06;18.55;;;9.82;;
65799;SDS011;52544;48.116;11.660;2022-09-16T11:02:48;17.35;;;9.88;;
65799;SDS011;52544;48.116;11.660;2022-09-16T11:05:29;18.38;;;10.80;;
65799;SDS011;52544;48.116;11.660;2022-09-16T11:16:20;15.82;;;9.45;;
65799;SDS011;52544;48.116;11.660;2022-09-16T11:18:56;11.88;;;7.65;;
65799;SDS011;52544;48.116;11.660;2022-09-16T11:27:59;11.95;;;6.75;;
65799;SDS011;52544;48.116;11.660;2022-09-16T11:30:27;15.00;;;7.32;;
65799;SDS011;52544;48.116;11.660;2022-09-16T11:38:26;12.80;;;6.03;;
65799;SDS011;52544;48.116;11.660;2022-09-16T11:43:54;12.93;;;6.03;;
65799;SDS011;52544;48.116;11.660;2022-09-16T11:52:05;13.65;;;7.05;;
65799;SDS011;52544;48.116;11.660;2022-09-16T11:54:59;15.65;;;7.95;;
65799;SDS011;52544;48.116;11.660;2022-09-16T11:57:35;11.25;;;6.32;;
65799;SDS011;52544;48.116;11.660;2022-09-16T12:00:08;10.57;;;6.00;;
65799;SDS011;52544;48.116;11.660;2022-09-16T12:05:41;8.20;;;4.63;;
65799;SDS011;52544;48.116;11.660;2022-09-16T12:08:15;8.77;;;4.80;;
65799;SDS011;52544;48.116;11.660;2022-09-16T12:10:48;6.43;;;4.20;;
65799;SDS011;52544;48.116;11.660;2022-09-16T12:13:34;7.43;;;4.78;;
65799;SDS011;52544;48.116;11.660;2022-09-16T12:16:13;6.97;;;4.40;;
65799;SDS011;52544;48.116;11.660;2022-09-16T12:18:44;8.77;;;4.47;;
65799;SDS011;52544;48.116;11.660;2022-09-16T12:21:18;7.55;;;4.50;;
65799;SDS011;52544;48.116;11.660;2022-09-16T12:23:59;7.47;;;4.13;;
65799;SDS011;52544;48.116;11.660;2022-09-16T12:31:33;11.27;;;6.90;;
65799;SDS011;52544;48.116;11.660;2022-09-16T12:34:08;7.63;;;4.55;;
65799;SDS011;52544;48.116;11.660;2022-09-16T12:36:38;7.90;;;4.28;;
65799;SDS011;52544;48.116;11.660;2022-09-16T12:39:08;7.35;;;4.20;;
65799;SDS011;52544;48.116;11.660;2022-09-16T12:55:57;10.10;;;6.03;;
65799;SDS011;52544;48.116;11.660;2022-09-16T12:58:39;7.25;;;5.03;;
65799;SDS011;52544;48.116;11.660;2022-09-16T13:01:14;7.53;;;4.60;;
65799;SDS011;52544;48.116;11.660;2022-09-16T13:03:49;9.57;;;4.53;;
65799;SDS011;52544;48.116;11.660;2022-09-16T13:08:50;7.28;;;4.60;;
65799;SDS011;52544;48.116;11.660;2022-09-16T13:11:21;6.30;;;3.30;;
65799;SDS011;52544;48.116;11.660;2022-09-16T13:13:57;6.38;;;3.17;;
65799;SDS011;52544;48.116;11.660;2022-09-16T13:16:28;6.18;;;3.35;;
65799;SDS011;52544;48.116;11.660;2022-09-16T13:21:48;4.40;;;2.78;;
65799;SDS011;52544;48.116;11.660;2022-09-16T13:24:30;4.78;;;3.13;;
65799;SDS011;52544;48.116;11.660;2022-09-16T13:26:57;6.18;;;3.30;;
65799;SDS011;52544;48.116;11.660;2022-09-16T13:29:30;5.93;;;3.10;;
65799;SDS011;52544;48.116;11.660;2022-09-16T13:32:27;5.38;;;3.30;;
65799;SDS011;52544;48.116;11.660;2022-09-16T13:35:33;7.22;;;3.05;;
65799;SDS011;52544;48.116;11.660;2022-09-16T13:37:58;7.10;;;3.50;;
65799;SDS011;52544;48.116;11.660;2022-09-16T13:40:57;6.03;;;3.85;;
65799;SDS011;52544;48.116;11.660;2022-09-16T13:43:31;6.53;;;3.45;;
65799;SDS011;52544;48.116;11.660;2022-09-16T13:46:00;7.70;;;3.63;;
65799;SDS011;52544;48.116;11.660;2022-09-16T13:48:28;7.40;;;3.53;;
65799;SDS011;52544;48.116;11.660;2022-09-16T13:51:06;8.40;;;3.30;;
65799;SDS011;52544;48.116;11.660;2022-09-16T13:53:38;7.70;;;3.38;;
65799;SDS011;52544;48.116;11.660;2022-09-16T13:58:41;4.05;;;2.80;;
65799;SDS011;52544;48.116;11.660;2022-09-16T14:01:22;5.57;;;3.40;;
65799;SDS011;52544;48.116;11.660;2022-09-16T14:12:37;6.35;;;3.50;;
65799;SDS011;52544;48.116;11.660;2022-09-16T14:15:03;6.70;;;3.60;;
65799;SDS011;52544;48.116;11.660;2022-09-16T14:17:36;7.50;;;3.67;;
65799;SDS011;52544;48.116;11.660;2022-09-16T14:20:04;6.03;;;3.67;;
65799;SDS011;52544;48.116;11.660;2022-09-16T14:22:40;8.93;;;3.70;;
65799;SDS011;52544;48.116;11.660;2022-09-16T14:30:58;18.65;;;9.00;;
65799;SDS011;52544;48.116;11.660;2022-09-16T14:36:07;5.78;;;2.90;;
65799;SDS011;52544;48.116;11.660;2022-09-16T14:38:35;6.35;;;3.42;;
65799;SDS011;52544;48.116;11.660;2022-09-16T14:41:05;4.68;;;3.47;;
65799;SDS011;52544;48.116;11.660;2022-09-16T14:43:33;5.80;;;3.50;;
65799;SDS011;52544;48.116;11.660;2022-09-16T14:46:02;5.32;;;3.80;;
65799;SDS011;52544;48.116;11.660;2022-09-16T14:48:32;6.43;;;3.80;;
65799;SDS011;52544;48.116;11.660;2022-09-16T14:51:02;8.75;;;4.90;;
65799;SDS011;52544;48.116;11.660;2022-09-16T14:53:29;16.48;;;8.85;;
65799;SDS011;52544;48.116;11.660;2022-09-16T14:55:56;9.52;;;4.50;;
65799;SDS011;52544;48.116;11.660;2022-09-16T14:58:22;7.70;;;4.03;;
65799;SDS011;52544;48.116;11.660;2022-09-16T15:01:00;5.93;;;3.70;;
65799;SDS011;52544;48.116;11.660;2022-09-16T15:03:51;8.93;;;3.97;;
65799;SDS011;52544;48.116;11.660;2022-09-16T15:06:22;6.35;;;4.05;;
65799;SDS011;52544;48.116;11.660;2022-09-16T15:08:56;5.85;;;3.95;;
65799;SDS011;52544;48.116;11.660;2022-09-16T15:11:28;8.05;;;3.92;;
65799;SDS011;52544;48.116;11.660;2022-09-16T15:13:58;5.57;;;3.92;;
65799;SDS011;52544;48.116;11.660;2022-09-16T15:16:23;5.22;;;3.72;;
65799;SDS011;52544;48.116;11.660;2022-09-16T15:21:30;6.60;;;4.13;;
65799;SDS011;52544;48.116;11.660;2022-09-16T15:23:59;7.15;;;4.70;;
65799;SDS011;52544;48.116;11.660;2022-09-16T15:29:06;4.50;;;3.33;;
65799;SDS011;52544;48.116;11.660;2022-09-16T15:31:42;4.93;;;3.05;;
65799;SDS011;52544;48.116;11.660;2022-09-16T15:36:43;5.05;;;3.47;;
65799;SDS011;52544;48.116;11.660;2022-09-16T15:39:22;4.65;;;3.42;;
65799;SDS011;52544;48.116;11.660;2022-09-16T15:44:37;5.72;;;3.35;;
65799;SDS011;52544;48.116;11.660;2022-09-16T15:49:43;7.43;;;4.10;;
65799;SDS011;52544;48.116;11.660;2022-09-16T15:52:09;5.95;;;3.70;;
65799;SDS011;52544;48.116;11.660;2022-09-16T15:54:47;4.57;;;3.10;;
65799;SDS011;52544;48.116;11.660;2022-09-16T15:57:22;6.28;;;3.67;;
65799;SDS011;52544;48.116;11.660;2022-09-16T16:02:38;7.20;;;3.35;;
65799;SDS011;52544;48.116;11.660;2022-09-16T16:05:13;5.30;;;3.30;;
65799;SDS011;52544;48.116;11.660;2022-09-16T16:10:10;6.63;;;3.78;;
65799;SDS011;52544;48.116;11.660;2022-09-16T16:12:41;6.75;;;3.78;;
65799;SDS011;52544;48.116;11.660;2022-09-16T16:15:08;13.38;;;3.88;;
65799;SDS011;52544;48.116;11.660;2022-09-16T16:17:34;8.82;;;4.32;;
65799;SDS011;52544;48.116;11.660;2022-09-16T16:19:59;5.20;;;3.70;;
65799;SDS011;52544;48.116;11.660;2022-09-16T16:22:26;7.53;;;4.70;;
65799;SDS011;52544;48.116;11.660;2022-09-16T16:24:52;6.88;;;3.97;;
65799;SDS011;52544;48.116;11.660;2022-09-16T16:27:18;4.78;;;3.60;;
65799;SDS011;52544;48.116;11.660;2022-09-16T18:28:51;7.00;;;4.53;;
65799;SDS011;52544;48.116;11.660;2022-09-16T18:31:18;8.65;;;4.65;;
65799;SDS011;52544;48.116;11.660;2022-09-16T18:33:45;7.30;;;4.40;;
65799;SDS011;52544;48.116;11.660;2022-09-16T18:36:12;8.93;;;5.03;;
65799;SDS011;52544;48.116;11.660;2022-09-16T18:38:39;7.00;;;4.60;;
65799;SDS011;52544;48.116;11.660;2022-09-16T18:41:06;6.65;;;4.80;;
65799;SDS011;52544;48.116;11.660;2022-09-16T18:43:37;7.10;;;4.70;;
65799;SDS011;52544;48.116;11.660;2022-09-16T18:46:13;6.85;;;4.47;;
65799;SDS011;52544;48.116;11.660;2022-09-16T18:48:42;7.72;;;5.00;;
65799;SDS011;52544;48.116;11.660;2022-09-16T18:51:18;7.65;;;4.47;;
65799;SDS011;52544;48.116;11.660;2022-09-16T18:53:52;15.00;;;6.00;;
65799;SDS011;52544;48.116;11.660;2022-09-16T18:56:21;12.32;;;5.63;;
65799;SDS011;52544;48.116;11.660;2022-09-16T18:58:48;7.65;;;4.72;;
65799;SDS011;52544;48.116;11.660;2022-09-16T19:03:50;10.38;;;5.43;;
65799;SDS011;52544;48.116;11.660;2022-09-16T19:06:17;13.65;;;5.28;;
65799;SDS011;52544;48.116;11.660;2022-09-16T19:08:43;10.93;;;5.50;;
65799;SDS011;52544;48.116;11.660;2022-09-16T19:11:09;9.25;;;5.20;;
65799;SDS011;52544;48.116;11.660;2022-09-16T19:13:34;7.07;;;4.75;;
65799;SDS011;52544;48.116;11.660;2022-09-16T19:16:00;9.60;;;5.15;;
65799;SDS011;52544;48.116;11.660;2022-09-16T19:18:26;11.57;;;5.20;;
65799;SDS011;52544;48.116;11.660;2022-09-16T19:20:55;9.38;;;4.95;;
65799;SDS011;52544;48.116;11.660;2022-09-16T19:23:21;6.70;;;4.35;;
65799;SDS011;52544;48.116;11.660;2022-09-16T19:25:47;7.45;;;4.45;;
65799;SDS011;52544;48.116;11.660;2022-09-16T19:28:13;8.48;;;4.80;;
65799;SDS011;52544;48.116;11.660;2022-09-16T19:30:38;7.65;;;4.55;;
65799;SDS011;52544;48.116;11.660;2022-09-16T19:33:03;6.60;;;4.38;;
65799;SDS011;52544;48.116;11.660;2022-09-16T19:35:29;7.60;;;4.28;;
65799;SDS011;52544;48.116;11.660;2022-09-16T19:37:56;8.85;;;4.45;;
65799;SDS011;52544;48.116;11.660;2022-09-16T19:40:23;8.32;;;4.57;;
65799;SDS011;52544;48.116;11.660;2022-09-16T19:42:48;6.65;;;4.50;;
65799;SDS011;52544;48.116;11.660;2022-09-16T19:45:14;8.15;;;4.63;;
65799;SDS011;52544;48.116;11.660;2022-09-16T19:47:39;12.80;;;5.18;;
65799;SDS011;52544;48.116;11.660;2022-09-16T19:50:05;8.50;;;5.15;;
65799;SDS011;52544;48.116;11.660;2022-09-16T19:52:31;6.53;;;4.05;;